Time;durP1;ratioP1;P1;durP2;ratioP2;P2;SDS_P1;SDS_P2;PMS_P1;PMS_P2;Temp;Humidity;BMP_temperature;BMP_pressure;BME280_temperature;BME280_humidity;BME280_pressure;Samples;Min_cycle;Max_cycle;Signal;HPM_P1;HPM_P2
2022/05/30 00:04:20;;;;;;;3.90;2.43;;;;;;;6.79;100.00;96064.97;10370737;28;20221;-76
2022/05/30 00:09:20;;;;;;;2.60;1.90;;;;;;;6.60;100.00;96075.53;10370278;28;20197;-75
2022/05/30 00:14:20;;;;;;;2.00;1.80;;;;;;;6.55;100.00;96078.53;10369705;28;20295;-75
2022/05/30 00:19:21;;;;;;;1.97;1.53;;;;;;;6.32;100.00;96078.13;10370060;28;20676;-76
2022/05/30 00:24:21;;;;;;;2.37;2.17;;;;;;;6.16;100.00;96065.78;10369456;28;20391;-77
2022/05/30 00:29:21;;;;;;;5.97;2.23;;;;;;;6.13;100.00;96071.28;10369727;28;20197;-76
2022/05/30 00:34:23;;;;;;;4.40;2.40;;;;;;;6.15;100.00;96058.13;10369885;28;20193;-74
2022/05/30 00:39:23;;;;;;;5.60;3.20;;;;;;;6.13;100.00;96047.06;10368885;28;20197;-74
2022/05/30 00:44:23;;;;;;;4.47;3.10;;;;;;;6.25;100.00;96043.28;10368987;28;20232;-74
2022/05/30 00:49:24;;;;;;;4.20;2.83;;;;;;;6.33;100.00;96047.75;10369061;28;20197;-74
2022/05/30 00:54:43;;;;;;;9.20;3.27;;;;;;;6.25;100.00;96048.50;10350981;28;20319;-76
2022/05/30 00:59:43;;;;;;;4.93;2.93;;;;;;;6.14;100.00;96059.91;10334174;28;20204;-76
2022/05/30 01:10:06;;;;;;;10.60;3.40;;;;;;;5.75;100.00;96041.84;10350862;28;20189;-75
2022/05/30 01:15:10;;;;;;;4.57;3.87;;;;;;;5.60;100.00;96043.28;10351069;28;20653;-76
2022/05/30 01:20:20;;;;;;;14.43;4.80;;;;;;;5.52;100.00;96036.19;10350607;28;20272;-76
2022/05/30 01:25:44;;;;;;;6.10;4.47;;;;;;;5.44;100.00;96036.09;10334353;28;20696;-76
2022/05/30 01:30:51;;;;;;;4.90;4.40;;;;;;;5.33;100.00;96024.91;10334986;28;20203;-76
2022/05/30 01:35:51;;;;;;;7.20;5.60;;;;;;;5.18;100.00;96023.72;10350505;28;20185;-76
2022/05/30 01:40:52;;;;;;;8.43;6.03;;;;;;;5.08;100.00;96026.31;10350539;28;20532;-76
2022/05/30 01:45:52;;;;;;;6.87;6.13;;;;;;;5.00;100.00;96021.81;10357534;28;20662;-76
2022/05/30 01:50:57;;;;;;;6.50;5.03;;;;;;;5.10;100.00;96032.19;10357980;28;20187;-76
2022/05/30 01:56:00;;;;;;;5.57;4.87;;;;;;;5.03;100.00;96036.31;10357633;28;20283;-76
2022/05/30 02:01:05;;;;;;;7.07;5.83;;;;;;;4.79;100.00;96026.34;10356584;28;20284;-76
2022/05/30 02:06:06;;;;;;;8.63;6.13;;;;;;;4.74;100.00;96018.16;10357694;28;20237;-76
2022/05/30 02:11:08;;;;;;;7.07;6.37;;;;;;;4.71;100.00;96021.03;10356615;28;20189;-76
2022/05/30 02:21:34;;;;;;;8.13;5.07;;;;;;;4.64;100.00;96029.38;10342717;28;20192;-76
2022/05/30 02:26:36;;;;;;;5.93;5.33;;;;;;;4.61;100.00;96029.63;10357038;28;20214;-76
2022/05/30 02:31:37;;;;;;;8.03;5.83;;;;;;;4.47;100.00;96033.47;10356519;28;20189;-76
2022/05/30 02:36:41;;;;;;;6.40;5.73;;;;;;;4.37;100.00;96024.03;10356409;28;20186;-76
2022/05/30 02:41:47;;;;;;;10.60;7.53;;;;;;;4.25;100.00;96020.72;10356308;28;20267;-76
2022/05/30 02:46:50;;;;;;;8.33;6.43;;;;;;;4.21;100.00;96027.13;10355461;28;20220;-76
2022/05/30 02:51:51;;;;;;;10.10;6.73;;;;;;;4.08;100.00;96029.97;10356172;28;20198;-76
2022/05/30 02:56:54;;;;;;;11.80;8.33;;;;;;;4.03;100.00;96040.75;10354080;28;20241;-76
2022/05/30 03:01:55;;;;;;;18.60;9.23;;;;;;;3.96;100.00;96042.22;10355079;28;20609;-76
2022/05/30 03:06:57;;;;;;;13.40;8.73;;;;;;;3.92;100.00;96043.41;10351943;28;20701;-76
2022/05/30 03:11:58;;;;;;;7.80;7.00;;;;;;;3.87;100.00;96045.59;10351561;28;20197;-76
2022/05/30 03:16:58;;;;;;;7.60;6.47;;;;;;;3.83;100.00;96047.66;10351826;28;20189;-76
2022/05/30 03:21:59;;;;;;;5.93;5.33;;;;;;;3.82;100.00;96060.72;10334925;28;20200;-76
2022/05/30 03:27:00;;;;;;;9.70;6.23;;;;;;;3.77;100.00;96058.53;10350920;28;20312;-76
2022/05/30 03:32:00;;;;;;;7.73;6.20;;;;;;;3.79;100.00;96051.44;10350448;28;20212;-76
2022/05/30 03:37:01;;;;;;;7.83;7.03;;;;;;;3.74;100.00;96059.59;10351228;28;20182;-76
2022/05/30 03:42:17;;;;;;;6.43;5.53;;;;;;;3.76;100.00;96054.28;10349901;28;20196;-76
2022/05/30 03:47:26;;;;;;;8.90;6.07;;;;;;;3.69;100.00;96059.19;10350290;28;20189;-76
2022/05/30 03:52:29;;;;;;;7.10;6.23;;;;;;;3.66;100.00;96068.97;10349297;28;20185;-76
2022/05/30 03:57:30;;;;;;;7.37;6.03;;;;;;;3.74;100.00;96072.56;10349161;28;20366;-76
2022/05/30 04:02:30;;;;;;;10.93;6.40;;;;;;;3.82;100.00;96064.13;10334357;28;20221;-76
2022/05/30 04:07:31;;;;;;;8.37;5.87;;;;;;;3.96;100.00;96070.72;10351788;28;20271;-76
2022/05/30 04:13:05;;;;;;;6.97;5.73;;;;;;;4.11;100.00;96074.59;10369528;28;20189;-76
2022/05/30 04:18:21;;;;;;;7.00;6.30;;;;;;;4.20;100.00;96070.38;10370317;28;20197;-76
2022/05/30 04:23:22;;;;;;;7.63;5.73;;;;;;;4.31;100.00;96068.66;10352166;28;20685;-76
2022/05/30 04:28:28;;;;;;;7.13;4.40;;;;;;;4.38;100.00;96064.53;10352203;28;20220;-76
2022/05/30 04:33:48;;;;;;;6.20;4.80;;;;;;;4.55;100.00;96058.72;10369613;28;20284;-76
2022/05/30 04:38:49;;;;;;;7.97;5.03;;;;;;;4.66;100.00;96062.97;10351824;28;20747;-76
2022/05/30 04:44:08;;;;;;;8.37;5.13;;;;;;;4.76;100.00;96062.94;10369989;28;20252;-76
2022/05/30 04:49:28;;;;;;;4.90;4.27;;;;;;;4.98;100.00;96067.06;10369208;28;20232;-76
2022/05/30 04:54:29;;;;;;;5.33;4.63;;;;;;;5.31;100.00;96063.19;10351898;28;20780;-76
2022/05/30 04:59:47;;;;;;;5.73;4.10;;;;;;;5.72;100.00;96070.72;10351861;28;20219;-74
2022/05/30 05:04:47;;;;;;;5.83;4.03;;;;;;;5.97;100.00;96064.09;10351909;28;20224;-74
2022/05/30 05:09:54;;;;;;;4.43;2.97;;;;;;;6.42;100.00;96059.91;10351191;28;20195;-75
2022/05/30 05:15:15;;;;;;;3.70;3.03;;;;;;;6.80;100.00;96060.59;10368902;28;20208;-76
2022/05/30 05:20:53;;;;;;;3.20;2.83;;;;;;;7.07;100.00;96062.25;10366272;28;20232;-76
2022/05/30 05:25:54;;;;;;;3.60;2.70;;;;;;;7.36;100.00;96063.78;10359601;28;20819;-77
2022/05/30 05:31:33;;;;;;;3.50;2.97;;;;;;;7.57;100.00;96060.03;10376423;28;20197;-77
2022/05/30 05:36:38;;;;;;;3.37;2.60;;;;;;;7.81;100.00;96060.16;10359285;28;20186;-78
2022/05/30 05:41:41;;;;;;;4.70;1.93;;;;;;;8.80;100.00;96057.88;10376198;28;20193;-79
2022/05/30 05:46:44;;;;;;;3.07;1.40;;;;;;;10.03;100.00;96061.31;10358241;28;20228;-79
2022/05/30 05:51:44;;;;;;;1.30;1.17;;;;;;;10.29;100.00;96056.66;10358211;28;20197;-79
2022/05/30 05:56:46;;;;;;;2.97;1.30;;;;;;;9.73;100.00;96053.25;10358505;28;20233;-80
2022/05/30 06:01:53;;;;;;;1.70;1.50;;;;;;;9.73;100.00;96063.72;10357763;28;20189;-80
2022/05/30 06:07:00;;;;;;;3.73;1.90;;;;;;;9.85;100.00;96059.75;10357824;28;20368;-80
2022/05/30 06:12:07;;;;;;;3.10;1.90;;;;;;;9.73;100.00;96072.38;10357503;28;20684;-81
2022/05/30 06:17:10;;;;;;;4.00;2.10;;;;;;;9.48;100.00;96073.38;10357468;28;20185;-79
2022/05/30 06:22:11;;;;;;;4.20;2.37;;;;;;;8.70;100.00;96089.38;10340918;28;20201;-79
2022/05/30 06:27:17;;;;;;;3.47;2.90;;;;;;;8.75;100.00;96086.28;10356205;28;20236;-80
2022/05/30 06:32:33;;;;;;;5.97;3.47;;;;;;;10.50;100.00;96084.88;10356630;28;20561;-79
2022/05/30 06:37:45;;;;;;;3.03;2.42;;;;;;;11.17;100.00;96072.19;10356559;28;20431;-80
2022/05/30 06:42:47;;;;;;;3.80;2.40;;;;;;;9.82;100.00;96083.63;10356196;28;20275;-78
2022/05/30 06:48:14;;;;;;;5.93;3.90;;;;;;;8.15;100.00;96098.44;10337230;28;20233;-78
2022/05/30 06:53:26;;;;;;;5.03;3.50;;;;;;;8.76;100.00;96103.59;10357670;28;20245;-78
2022/05/30 06:58:30;;;;;;;7.13;3.10;;;;;;;10.47;100.00;96100.13;10354869;28;20541;-78
2022/05/30 07:03:30;;;;;;;4.28;3.00;;;;;;;11.19;97.49;96078.88;10360944;28;20216;-78
2022/05/30 07:08:49;;;;;;;4.38;3.33;;;;;;;9.50;96.60;96082.69;10380310;28;20205;-77
2022/05/30 07:14:10;;;;;;;6.10;4.60;;;;;;;9.72;100.00;96106.53;10364196;28;20196;-77
2022/05/30 07:19:11;;;;;;;7.03;4.30;;;;;;;9.80;100.00;96104.72;10410178;28;20319;-78
2022/05/30 07:24:26;;;;;;;5.23;3.90;;;;;;;10.16;100.00;96104.28;10394205;28;20723;-77
2022/05/30 07:29:55;;;;;;;5.80;4.13;;;;;;;8.98;100.00;96123.03;10411647;28;20196;-76
2022/05/30 07:35:14;;;;;;;4.30;3.90;;;;;;;9.67;100.00;96112.25;10403714;28;20220;-76
2022/05/30 07:40:29;;;;;;;7.30;4.67;;;;;;;9.58;100.00;96127.13;10410190;28;20196;-76
2022/05/30 07:45:35;;;;;;;5.10;3.67;;;;;;;11.19;96.44;96099.03;10386231;28;20244;-76
2022/05/30 07:50:54;;;;;;;2.92;2.58;;;;;;;12.10;87.68;96064.94;10374906;28;20185;-76
2022/05/30 07:56:18;;;;;;;4.50;4.10;;;;;;;12.42;87.64;96057.63;10372802;28;20221;-76
2022/05/30 08:01:20;;;;;;;4.32;3.55;;;;;;;13.22;84.54;96065.53;10373749;28;20660;-76
2022/05/30 08:06:28;;;;;;;4.72;3.08;;;;;;;13.47;74.24;95961.53;10354854;28;20213;-76
2022/05/30 08:11:48;;;;;;;3.78;3.30;;;;;;;13.23;77.96;96028.53;10353944;28;20267;-76
2022/05/30 08:17:08;;;;;;;3.15;2.78;;;;;;;11.59;78.54;96040.19;10359867;28;20632;-76
2022/05/30 08:22:11;;;;;;;4.45;2.80;;;;;;;12.23;77.39;96023.06;10351310;28;20315;-76
2022/05/30 08:27:12;;;;;;;4.57;2.75;;;;;;;13.68;76.38;96036.16;10349505;28;20217;-76
2022/05/30 08:32:20;;;;;;;4.05;3.65;;;;;;;13.49;73.92;96003.44;10365831;28;20284;-76
2022/05/30 08:37:33;;;;;;;4.80;3.25;;;;;;;15.27;69.66;95977.06;10400574;28;20201;-76
2022/05/30 08:42:34;;;;;;;7.40;3.30;;;;;;;13.35;67.80;95932.31;10390111;28;20641;-76
2022/05/30 08:47:57;;;;;;;3.22;2.92;;;;;;;13.73;67.25;95933.72;10408597;28;20231;-76
2022/05/30 08:53:23;;;;;;;2.47;2.28;;;;;;;14.63;65.80;95938.88;10389303;28;20249;-78
2022/05/30 08:58:43;;;;;;;3.63;2.75;;;;;;;12.08;72.91;96023.09;10390979;28;20291;-76
2022/05/30 09:04:08;;;;;;;4.00;2.50;;;;;;;13.69;70.88;96001.75;10390227;28;20278;-75
2022/05/30 09:09:27;;;;;;;4.30;2.30;;;;;;;15.83;65.67;95946.72;10393060;28;20192;-76
2022/05/30 09:14:37;;;;;;;4.97;2.60;;;;;;;17.07;61.12;95890.84;10408874;28;20185;-76
2022/05/30 09:19:38;;;;;;;2.45;1.88;;;;;;;14.91;63.71;95924.72;10390293;28;20204;-76
2022/05/30 09:25:55;;;;;;;2.95;1.90;;;;;;;15.40;58.22;95804.66;10319334;28;20698;-76
2022/05/30 09:30:06;;;;;;;3.80;1.65;;;;;;;17.99;56.54;95834.44;10295723;28;20281;-76
2022/05/30 09:35:33;;;;;;;4.72;2.83;;;;;;;16.98;63.42;95955.66;10312335;28;20198;-76
2022/05/30 09:41:14;;;;;;;3.15;2.65;;;;;;;17.22;60.06;95902.94;10313037;28;20198;-76
2022/05/30 09:46:34;;;;;;;2.95;2.65;;;;;;;17.00;58.53;95871.59;10324608;28;20221;-76
2022/05/30 09:52:03;;;;;;;3.88;2.05;;;;;;;16.77;61.71;95947.03;10276227;28;20210;-76
2022/05/30 09:57:12;;;;;;;3.97;2.40;;;;;;;17.86;57.91;95886.78;10372697;28;20259;-76
2022/05/30 10:02:38;;;;;;;1.92;1.70;;;;;;;19.31;52.38;95799.03;10393230;28;20197;-74
2022/05/30 10:07:53;;;;;;;2.60;1.92;;;;;;;15.78;59.77;95906.09;10397099;28;20223;-77
2022/05/30 10:13:09;;;;;;;1.67;1.58;;;;;;;16.47;57.79;95870.13;10353818;28;20189;-77
2022/05/30 10:18:35;;;;;;;3.53;1.83;;;;;;;15.99;59.22;95902.38;10370676;28;20200;-77
2022/05/30 10:30:33;;;;;;;1.95;1.65;;;;;;;16.97;57.87;95897.66;10354313;28;20201;-77
2022/05/30 10:36:24;;;;;;;2.40;1.50;;;;;;;17.02;52.07;95774.25;10369638;28;20189;-74
2022/05/30 10:41:36;;;;;;;2.30;1.60;;;;;;;16.33;54.05;95807.84;10354473;28;20646;-74
2022/05/30 10:46:45;;;;;;;2.97;1.70;;;;;;;15.55;54.86;95807.03;10354530;28;20228;-74
2022/05/30 10:52:06;;;;;;;1.90;1.70;;;;;;;16.24;63.17;96016.06;10338072;28;20280;-74
2022/05/30 10:57:20;;;;;;;2.65;1.40;;;;;;;18.54;52.14;95827.28;10338868;28;20614;-74
2022/05/30 11:02:30;;;;;;;2.45;1.90;;;;;;;18.17;58.31;95978.56;10296658;28;20194;-74
2022/05/30 11:07:49;;;;;;;1.83;1.73;;;;;;;16.79;57.09;95943.38;10313527;28;20291;-74
2022/05/30 11:13:13;;;;;;;2.78;1.85;;;;;;;15.24;62.09;96018.88;10313208;28;20185;-74
2022/05/30 11:18:41;;;;;;;3.53;2.13;;;;;;;14.90;64.35;96063.69;10348321;28;20196;-74
2022/05/30 11:24:09;;;;;;;3.08;2.03;;;;;;;14.19;67.23;96106.94;10363582;28;20249;-75
2022/05/30 11:29:32;;;;;;;6.75;2.17;;;;;;;13.69;68.57;96106.22;10352611;28;20280;-75
2022/05/30 11:34:46;;;;;;;1.80;1.70;;;;;;;13.67;68.95;96113.50;10338401;28;20199;-75
2022/05/30 11:40:13;;;;;;;4.90;1.85;;;;;;;13.47;65.97;96052.81;10392462;28;20201;-78
2022/05/30 11:45:40;;;;;;;3.45;1.77;;;;;;;11.01;74.23;96191.03;10392530;28;20316;-76
2022/05/30 11:50:56;;;;;;;1.90;1.40;;;;;;;10.23;79.42;96224.88;10392376;28;20196;-79
2022/05/30 11:56:16;;;;;;;8.77;2.00;;;;;;;9.86;84.17;96228.81;10391238;28;20282;-77
2022/05/30 12:01:18;;;;;;;1.70;1.13;;;;;;;9.56;87.82;96206.75;10391802;28;20193;-77
2022/05/30 12:06:43;;;;;;;1.43;1.33;;;;;;;9.50;93.72;96202.16;10391254;28;20303;-77
2022/05/30 12:11:49;;;;;;;3.33;1.63;;;;;;;9.44;100.00;96203.63;10409467;28;20652;-77
2022/05/30 12:17:08;;;;;;;3.73;1.50;;;;;;;9.52;100.00;96215.88;10408513;28;20200;-77
2022/05/30 12:27:28;;;;;;;3.27;2.57;;;;;;;8.89;100.00;96197.13;10383498;28;20217;-80
2022/05/30 12:32:33;;;;;;;3.13;2.80;;;;;;;8.54;100.00;96197.16;10373460;28;20196;-79
2022/05/30 12:37:43;;;;;;;5.63;3.73;;;;;;;8.84;100.00;96196.81;10381931;28;20609;-78
2022/05/30 12:42:44;;;;;;;3.87;3.30;;;;;;;9.60;100.00;96190.56;10384467;28;20656;-78
2022/05/30 12:47:53;;;;;;;2.50;2.30;;;;;;;10.24;100.00;96184.59;10385928;28;20384;-78
2022/05/30 12:52:56;;;;;;;6.10;2.80;;;;;;;11.15;100.00;96199.97;10386637;28;20199;-77
2022/05/30 12:57:56;;;;;;;2.25;1.65;;;;;;;11.99;100.00;96192.19;10390147;28;20236;-78
2022/05/30 13:03:09;;;;;;;2.65;1.48;;;;;;;12.69;100.00;96177.00;10390603;28;20222;-77
2022/05/30 13:08:47;;;;;;;1.20;1.10;;;;;;;12.19;96.59;96170.66;10403304;28;20189;-78
2022/05/30 13:13:49;;;;;;;1.20;1.10;;;;;;;11.36;89.27;96146.91;10360362;28;20208;-80
2022/05/30 13:18:49;;;;;;;1.05;1.05;;;;;;;12.50;80.49;96075.91;10310386;28;20210;-78
2022/05/30 13:23:50;;;;;;;3.58;1.40;;;;;;;14.44;77.29;96093.28;10293031;28;20268;-76
2022/05/30 13:28:50;;;;;;;1.73;1.60;;;;;;;16.38;72.87;96070.50;10309200;28;20200;-76
2022/05/30 13:33:54;;;;;;;3.88;1.77;;;;;;;18.02;62.16;95967.53;10350012;28;20615;-77
2022/05/30 13:38:54;;;;;;;3.55;1.90;;;;;;;20.45;51.74;95824.03;10351333;28;20283;-76
2022/05/30 13:43:57;;;;;;;2.75;1.80;;;;;;;19.78;53.50;95892.75;10374589;28;20255;-76
2022/05/30 13:48:58;;;;;;;2.63;1.55;;;;;;;22.74;50.06;95885.06;10372271;28;20193;-78
2022/05/30 13:53:59;;;;;;;1.52;1.30;;;;;;;20.80;51.88;95908.19;10368038;28;20244;-75
2022/05/30 13:59:03;;;;;;;1.48;1.38;;;;;;;22.74;46.51;95818.28;10353891;28;20608;-78
2022/05/30 14:04:21;;;;;;;2.65;1.83;;;;;;;19.86;50.53;95872.16;10371966;28;20256;-79
2022/05/30 14:09:22;;;;;;;2.67;1.80;;;;;;;18.77;49.15;95815.88;10373676;28;20280;-78
2022/05/30 14:14:38;;;;;;;2.47;1.70;;;;;;;16.81;57.78;95986.28;10355784;28;20203;-79
2022/05/30 14:19:40;;;;;;;2.45;1.65;;;;;;;15.68;60.72;96030.59;10372838;28;20200;-79
2022/05/30 14:24:55;;;;;;;3.90;2.20;;;;;;;15.61;63.26;96093.97;10356434;28;20220;-77
2022/05/30 14:30:07;;;;;;;2.17;1.98;;;;;;;14.63;68.33;96161.13;10356134;28;20201;-77
2022/05/30 14:35:21;;;;;;;2.22;2.10;;;;;;;13.61;74.80;96201.91;10355558;28;20652;-76
2022/05/30 14:40:36;;;;;;;3.80;3.13;;;;;;;11.97;98.45;96244.03;10355355;28;20658;-77
2022/05/30 14:45:43;;;;;;;3.53;2.90;;;;;;;11.35;100.00;96251.00;10355069;28;20221;-78
2022/05/30 14:50:48;;;;;;;4.43;3.00;;;;;;;10.50;100.00;96260.34;10372836;28;20263;-79
2022/05/30 14:55:50;;;;;;;8.03;4.17;;;;;;;9.76;100.00;96259.56;10354782;28;20247;-79
2022/05/30 15:00:56;;;;;;;6.20;5.17;;;;;;;9.71;100.00;96272.28;10355111;28;20193;-79
2022/05/30 15:05:56;;;;;;;5.30;3.90;;;;;;;9.33;100.00;96285.78;10371957;28;20275;-77
2022/05/30 15:10:57;;;;;;;7.53;4.50;;;;;;;9.82;100.00;96298.16;10395989;28;20259;-76
2022/05/30 15:15:57;;;;;;;4.10;3.70;;;;;;;9.49;100.00;96295.47;10410681;28;20201;-76
2022/05/30 15:20:57;;;;;;;6.07;4.10;;;;;;;8.97;100.00;96296.44;10412314;28;20204;-77
2022/05/30 15:25:58;;;;;;;5.63;4.63;;;;;;;8.96;100.00;96296.59;10412139;28;20262;-77
2022/05/30 15:30:59;;;;;;;5.63;5.10;;;;;;;9.02;100.00;96302.03;10394426;28;20201;-76
2022/05/30 15:36:01;;;;;;;4.27;3.80;;;;;;;9.17;100.00;96298.78;10411361;28;20185;-76
2022/05/30 15:41:02;;;;;;;6.47;5.33;;;;;;;9.42;100.00;96305.75;10411248;28;20189;-76
2022/05/30 15:46:03;;;;;;;4.37;3.93;;;;;;;9.32;100.00;96299.81;10410600;28;20223;-76
2022/05/30 15:51:05;;;;;;;3.83;3.53;;;;;;;10.53;100.00;96288.00;10370023;28;20213;-76
2022/05/30 16:01:24;;;;;;;4.57;3.20;;;;;;;10.27;100.00;96296.84;10370627;28;20193;-76
2022/05/30 16:06:28;;;;;;;5.80;3.00;;;;;;;9.80;100.00;96295.69;10370175;28;20713;-77
2022/05/30 16:11:28;;;;;;;7.13;3.50;;;;;;;9.90;100.00;96307.81;10332295;28;20201;-76
2022/05/30 16:16:29;;;;;;;4.93;3.20;;;;;;;9.96;100.00;96292.25;10312930;28;20197;-78
2022/05/30 16:21:29;;;;;;;4.77;3.40;;;;;;;10.09;100.00;96301.41;10385109;28;20615;-76
2022/05/30 16:26:34;;;;;;;4.13;3.10;;;;;;;10.17;100.00;96299.63;10386985;28;20209;-77
2022/05/30 16:37:57;;;;;;;5.23;3.40;;;;;;;10.54;100.00;96307.97;10370031;28;20710;-77
2022/05/30 16:42:58;;;;;;;4.60;2.77;;;;;;;10.55;100.00;96303.53;10352987;28;20284;-79
2022/05/30 16:47:59;;;;;;;5.70;3.50;;;;;;;10.71;100.00;96304.31;10369403;28;20251;-78
2022/05/30 16:52:59;;;;;;;4.47;3.40;;;;;;;10.85;100.00;96294.97;10351728;28;20224;-78
2022/05/30 16:58:02;;;;;;;4.67;3.57;;;;;;;11.18;100.00;96296.63;10369865;28;20315;-79
2022/05/30 17:03:04;;;;;;;5.43;4.10;;;;;;;11.24;100.00;96307.28;10369039;28;20213;-78
2022/05/30 17:08:04;;;;;;;6.60;4.10;;;;;;;10.76;100.00;96308.25;10369392;28;20224;-77
2022/05/30 17:13:06;;;;;;;4.10;3.37;;;;;;;10.78;100.00;96306.28;10350010;28;20291;-79
2022/05/30 17:18:06;;;;;;;4.83;3.60;;;;;;;10.59;100.00;96321.38;10367642;28;20212;-79
2022/05/30 17:23:07;;;;;;;5.25;3.97;;;;;;;10.41;100.00;96316.31;10350507;28;20296;-79
2022/05/30 17:33:28;;;;;;;9.17;3.97;;;;;;;10.28;100.00;96324.66;10369103;28;20264;-79
2022/05/30 17:38:28;;;;;;;4.63;4.07;;;;;;;10.43;100.00;96331.88;10351419;28;20193;-79
2022/05/30 17:43:29;;;;;;;5.23;3.93;;;;;;;10.46;100.00;96324.53;10368769;28;20592;-79
2022/05/30 17:48:38;;;;;;;5.30;3.90;;;;;;;10.40;100.00;96332.19;10368172;28;20197;-80
2022/05/30 17:53:40;;;;;;;4.13;3.80;;;;;;;10.17;100.00;96336.28;10348282;28;22296;-79
2022/05/30 17:58:40;;;;;;;5.43;4.60;;;;;;;10.12;100.00;96348.22;10327822;28;20669;-79
2022/05/30 18:03:41;;;;;;;4.60;4.20;;;;;;;10.10;100.00;96352.78;10327316;28;20222;-78
2022/05/30 18:08:47;;;;;;;5.57;4.77;;;;;;;10.04;100.00;96362.09;10327785;28;20658;-79
2022/05/30 18:14:19;;;;;;;6.47;5.13;;;;;;;9.96;100.00;96362.09;10327438;28;20285;-79
2022/05/30 18:19:37;;;;;;;52.50;20.10;;;;;;;9.92;100.00;96364.22;10297170;28;20206;-80
2022/05/30 18:24:51;;;;;;;7.03;5.33;;;;;;;10.01;100.00;96365.03;10313457;28;20249;-80
2022/05/30 18:29:52;;;;;;;8.47;6.20;;;;;;;9.86;100.00;96364.03;10335018;28;20205;-77
2022/05/30 18:35:11;;;;;;;5.40;4.90;;;;;;;9.66;100.00;96372.16;10333014;28;20225;-78
2022/05/30 18:40:13;;;;;;;6.63;5.70;;;;;;;9.48;100.00;96374.06;10332365;28;20213;-77
2022/05/30 18:45:28;;;;;;;8.07;6.00;;;;;;;9.25;100.00;96382.50;10316017;28;20627;-78
2022/05/30 18:50:29;;;;;;;8.43;6.63;;;;;;;9.09;100.00;96393.66;10332981;28;20205;-80
2022/05/30 18:55:29;;;;;;;8.57;6.20;;;;;;;8.87;100.00;96398.44;10350219;28;20247;-79
2022/05/30 19:00:32;;;;;;;7.37;5.70;;;;;;;8.70;100.00;96404.53;10372724;28;20794;-79
2022/05/30 19:05:32;;;;;;;8.47;6.70;;;;;;;8.53;100.00;96400.94;10373095;28;20228;-79
2022/05/30 19:10:39;;;;;;;11.07;7.80;;;;;;;8.15;100.00;96416.75;10373049;28;20551;-79
2022/05/30 19:21:02;;;;;;;10.30;7.83;;;;;;;7.79;100.00;96432.34;10340994;28;20197;-79
2022/05/30 19:26:03;;;;;;;12.40;8.37;;;;;;;7.75;100.00;96438.84;10354894;28;20221;-79
2022/05/30 19:31:04;;;;;;;9.57;8.20;;;;;;;7.73;100.00;96455.59;10371718;28;20193;-78
2022/05/30 19:36:04;;;;;;;20.53;8.90;;;;;;;7.61;100.00;96462.78;10371443;28;20181;-79
2022/05/30 19:41:08;;;;;;;9.17;8.27;;;;;;;7.48;100.00;96460.50;10371731;28;20197;-78
2022/05/30 19:46:19;;;;;;;11.30;8.03;;;;;;;7.41;100.00;96464.63;10371177;28;20213;-78
2022/05/30 19:51:19;;;;;;;13.27;8.60;;;;;;;7.31;100.00;96470.69;10353931;28;20255;-79
2022/05/30 19:56:22;;;;;;;13.53;9.73;;;;;;;7.22;100.00;96479.38;10353235;28;20236;-79
2022/05/30 20:01:23;;;;;;;10.30;8.13;;;;;;;7.27;100.00;96484.16;10353306;28;20673;-79
2022/05/30 20:06:25;;;;;;;12.93;8.63;;;;;;;7.20;100.00;96483.91;10370689;28;20225;-79
2022/05/30 20:11:31;;;;;;;14.20;9.27;;;;;;;7.10;100.00;96490.91;10370872;28;20193;-77
2022/05/30 20:16:36;;;;;;;11.67;9.93;;;;;;;7.02;100.00;96501.22;10370208;28;20216;-78
2022/05/30 20:21:38;;;;;;;15.00;9.47;;;;;;;6.87;100.00;96503.44;10370171;28;20189;-78
2022/05/30 20:26:39;;;;;;;10.87;8.77;;;;;;;6.71;100.00;96512.63;10370058;28;20312;-78
2022/05/30 20:31:39;;;;;;;14.43;10.00;;;;;;;6.51;100.00;96511.78;10352409;28;20194;-77
2022/05/30 20:36:39;;;;;;;14.23;10.10;;;;;;;6.48;100.00;96513.81;10370501;28;20235;-78
2022/05/30 20:47:00;;;;;;;11.20;8.20;;;;;;;6.31;100.00;96523.97;10369505;28;20221;-80
2022/05/30 20:52:00;;;;;;;10.90;8.60;;;;;;;6.17;100.00;96535.56;10352189;28;20189;-77
2022/05/30 20:57:01;;;;;;;13.53;8.73;;;;;;;6.10;100.00;96534.44;10369223;28;20232;-79
2022/05/30 21:02:02;;;;;;;10.77;7.63;;;;;;;6.02;100.00;96537.72;10369492;28;20280;-79
2022/05/30 21:07:03;;;;;;;10.83;8.60;;;;;;;5.91;100.00;96535.16;10370954;28;20217;-79
2022/05/30 21:12:04;;;;;;;10.67;8.97;;;;;;;5.72;100.00;96544.53;10354900;28;20200;-79
2022/05/30 21:17:15;;;;;;;14.43;8.40;;;;;;;5.62;100.00;96548.88;10370196;28;20184;-79
2022/05/30 21:28:38;;;;;;;9.80;7.43;;;;;;;5.43;100.00;96539.22;10369317;28;20662;-79
2022/05/30 21:33:47;;;;;;;10.67;9.13;;;;;;;5.31;100.00;96551.47;10350880;28;20193;-77
2022/05/30 21:38:47;;;;;;;11.53;8.80;;;;;;;5.32;100.00;96544.50;10368783;28;20189;-77
2022/05/30 21:43:48;;;;;;;13.07;9.67;;;;;;;5.17;100.00;96544.78;10350977;28;20699;-78
2022/05/30 21:48:48;;;;;;;10.83;8.33;;;;;;;5.12;100.00;96551.34;10367334;28;20260;-78
2022/05/30 21:53:48;;;;;;;13.67;8.73;;;;;;;5.03;100.00;96552.09;10350965;28;20722;-78
2022/05/30 21:58:56;;;;;;;12.57;8.67;;;;;;;4.92;100.00;96545.19;10369033;28;20200;-78
2022/05/30 22:03:57;;;;;;;9.87;8.87;;;;;;;4.83;100.00;96542.38;10375436;28;20258;-78
2022/05/30 22:08:57;;;;;;;11.60;8.20;;;;;;;4.83;100.00;96551.94;10375417;28;20208;-78
2022/05/30 22:13:58;;;;;;;12.50;9.87;;;;;;;4.69;100.00;96550.47;10375165;28;20189;-78
2022/05/30 22:19:00;;;;;;;10.90;9.00;;;;;;;4.62;100.00;96560.53;10375139;28;20201;-78
2022/05/30 22:24:01;;;;;;;13.23;9.17;;;;;;;4.54;100.00;96560.28;10374432;28;20225;-78
2022/05/30 22:29:02;;;;;;;10.03;8.00;;;;;;;4.52;100.00;96563.94;10374705;28;20192;-79
2022/05/30 22:34:03;;;;;;;10.10;8.60;;;;;;;4.42;100.00;96566.47;10374587;28;20189;-78
2022/05/30 22:39:03;;;;;;;11.13;8.70;;;;;;;4.33;100.00;96557.63;10374424;28;20177;-78
2022/05/30 22:44:04;;;;;;;9.93;7.87;;;;;;;4.31;100.00;96558.72;10356352;28;20229;-78
2022/05/30 22:49:04;;;;;;;13.93;9.33;;;;;;;4.25;100.00;96562.63;10373744;28;20197;-78
2022/05/30 22:54:05;;;;;;;11.33;8.87;;;;;;;4.17;100.00;96560.63;10373560;28;20236;-78
2022/05/30 22:59:05;;;;;;;9.17;8.17;;;;;;;4.10;100.00;96572.41;10373231;28;20267;-79
2022/05/30 23:04:06;;;;;;;11.53;7.77;;;;;;;4.08;100.00;96558.75;10373253;28;20216;-79
2022/05/30 23:09:06;;;;;;;9.23;8.27;;;;;;;4.06;100.00;96565.84;10372796;28;20704;-78
2022/05/30 23:14:09;;;;;;;9.67;7.33;;;;;;;4.06;100.00;96558.88;10354147;28;20679;-79
2022/05/30 23:19:11;;;;;;;8.47;6.60;;;;;;;3.93;100.00;96553.81;10338624;28;20202;-78
2022/05/30 23:24:11;;;;;;;9.03;6.50;;;;;;;3.84;100.00;96553.69;10354854;28;20579;-77
2022/05/30 23:29:13;;;;;;;7.33;6.13;;;;;;;3.81;100.00;96559.13;10372332;28;20193;-77
2022/05/30 23:34:13;;;;;;;11.07;8.27;;;;;;;3.72;100.00;96560.66;10354759;28;20193;-78
2022/05/30 23:39:13;;;;;;;9.13;7.37;;;;;;;3.70;100.00;96567.72;10353888;28;20185;-78
2022/05/30 23:44:34;;;;;;;15.23;8.10;;;;;;;3.63;100.00;96567.38;10372030;28;20205;-78
2022/05/30 23:49:35;;;;;;;8.77;6.83;;;;;;;3.63;100.00;96551.00;10371670;28;20754;-78
2022/05/30 23:54:36;;;;;;;7.60;6.37;;;;;;;3.56;100.00;96551.44;10370831;28;20316;-78
2022/05/30 23:59:36;;;;;;;9.17;6.97;;;;;;;3.44;100.00;96551.56;10370657;28;20201;-78
